Detall de PIREP

Printer-friendly versionPDF version

[2010/11/18 11:20:00]
Flight IATA:CT3233
Pilot Number:042
Company ICAO:CAT
Aircraft Type:B744/E
PAX:200
Departing Airport: LEMD
Destination Airport: LEPA
Alternate Airport:LEVC
Online: VATSIM
Route:NANDO UW107 CLS UN733 GATOS
Flight Level:FL300
No Slew and time accel
No pause
Crash detect
Detect pilot in Cockpit between each 30 and 45 minutes
11:20 Zero fuel Weight: 466688 Lbs, Fuel Weight: 144155 Lbs
11:20 VATSIM:LEMD 181100Z 30007KT 260V330 9999 SCT040 11/02 Q1017 NOSIG
11:20 VATSIM:LEPA 181100Z 30013KT 9999 FEW030 16/04 Q1014 NOSIG
11:21 VOICE CATALONIAN
11:26 Parking Brakes off
11:39 Take-off
11:39 Take off Weight: 607353 Lbs
11:39 Wind: 295 @ 006 Knots Heading: 358
11:39 POS N40 30 30 W003 34 29
11:39 Gear Up: 193 Knots
11:39 Flaps:3 at 193 Knots
11:39 Flaps:2 at 205 Knots
11:42 Flaps:1 at 222 Knots
11:42 Flaps:0 at 236 Knots
11:54 Wind:315@053 Knots Heading: 106 Ground Speed: 488 Knots Altitude 24452 ft
11:57 TOC
11:57 Fuel Weight: 128329 Lb
12:09 Wind:317@064 Knots Heading: 085 Ground Speed: 521 Knots Altitude 30052 ft
12:19 TOD
12:19 Fuel Weight: 119923 Lb
12:24 Wind:294@041 Knots Heading: 050 Ground Speed: 380 Knots Altitude 19242 ft
12:29 Flaps:1 at 242 Knots
12:31 Flaps:2 at 212 Knots
12:31 Flaps:3 at 198 Knots
12:31 Flaps:4 at 189 Knots
12:34 Gear Down: 158 Knots
12:34 Flaps:5 at 157 Knots
12:34 Flaps:6 at 157 Knots
12:37 TouchDown:Rate -218 ft/min Speed: 151 Knots
12:37 VATSIM:LEPA 181200Z 30012KT 280V340 9999 FEW030 16/06 Q1014 NOSIG
12:37 Land
12:37 Wind:312@012 Knots
12:37 Heading: 238
12:37 Flight Duration: 00:58
12:37 Landing Weight: 581941 Lbs
12:37 POS N39 33 13 E002 43 29
12:40 Parking brakes on
12:40 Block to Block Duration: 01:14
12:40 Final Fuel: 114718 Lbls
12:40 Spent Fuel: 29437 Lbls
12:40 Flight Length: 308 NM
12:40 TOD Land Length: 89 NM

Exportar CSV

Powered by Drupal - Modified by Danger4k